createdAt,value
2023-02-23T00:01:32.248Z,100494.72
2023-02-23T00:05:44.813Z,100491.19
2023-02-23T00:09:57.275Z,100485.88
2023-02-23T00:14:09.838Z,100485.84
2023-02-23T00:18:23.266Z,100486.75
2023-02-23T00:22:35.939Z,100490.22
2023-02-23T00:26:51.727Z,100487.38
2023-02-23T00:31:04.629Z,100484.69
2023-02-23T00:35:17.620Z,100489.97
2023-02-23T00:39:30.006Z,100482.94
2023-02-23T00:43:48.223Z,100486.59
2023-02-23T00:48:00.647Z,100490.81
2023-02-23T00:52:15.057Z,100486.47
2023-02-23T00:56:28.279Z,100478.50
2023-02-23T01:00:42.595Z,100485.50
2023-02-23T01:04:54.966Z,100477.59
2023-02-23T01:09:16.385Z,100482.97
2023-02-23T01:13:28.875Z,100488.19
2023-02-23T01:17:43.302Z,100486.34
2023-02-23T01:21:56.211Z,100475.78
2023-02-23T01:26:23.056Z,100477.50
2023-02-23T01:30:36.357Z,100465.16
2023-02-23T01:34:48.729Z,100471.31
2023-02-23T01:39:01.231Z,100469.56
2023-02-23T01:43:15.326Z,100460.66
2023-02-23T01:47:27.760Z,100473.66
2023-02-23T01:51:59.336Z,100465.81
2023-02-23T01:56:22.140Z,100464.09
2023-02-23T02:00:36.844Z,100459.66
2023-02-23T02:04:52.583Z,100462.34
2023-02-23T02:09:10.659Z,100452.63
2023-02-23T02:13:31.761Z,100453.41
2023-02-23T02:18:09.510Z,100439.44
2023-02-23T02:22:45.384Z,100447.28
2023-02-23T02:27:29.986Z,100446.34
2023-02-23T02:32:14.081Z,100449.91
2023-02-23T02:36:52.473Z,100446.50
2023-02-23T02:41:53.614Z,100457.75
2023-02-23T02:46:21.790Z,100447.69
2023-02-23T02:50:40.662Z,100450.25
2023-02-23T02:55:12.519Z,100436.34
2023-02-23T02:59:43.894Z,100432.94
2023-02-23T03:04:19.976Z,100434.69
2023-02-23T03:09:44.826Z,100421.19
2023-02-23T03:14:30.614Z,100421.97
2023-02-23T03:19:10.434Z,100416.78
2023-02-23T03:23:44.699Z,100417.72
2023-02-23T03:28:35.347Z,100412.56
2023-02-23T03:33:20.154Z,100422.31
2023-02-23T03:38:16.791Z,100422.38
2023-02-23T03:42:54.197Z,100419.28
2023-02-23T03:47:28.224Z,100409.50
2023-02-23T03:52:04.979Z,100419.34
2023-02-23T03:56:40.361Z,100410.03
2023-02-23T04:01:14.953Z,100417.91
2023-02-23T04:05:48.783Z,100411.81
2023-02-23T04:10:19.925Z,100414.56
2023-02-23T04:14:40.647Z,100406.66
2023-02-23T04:18:53.760Z,100416.06
2023-02-23T04:23:06.822Z,100410.63
2023-02-23T04:27:19.288Z,100410.00
2023-02-23T04:31:31.633Z,100410.00
2023-02-23T04:35:44.044Z,100415.22
2023-02-23T04:39:56.378Z,100415.09
2023-02-23T04:44:08.882Z,100419.41
2023-02-23T04:48:22.122Z,100413.06
2023-02-23T04:52:35.372Z,100417.84
2023-02-23T04:56:48.049Z,100418.41
2023-02-23T05:01:12.374Z,100428.06
2023-02-23T05:05:24.863Z,100421.03
2023-02-23T05:09:37.309Z,100428.09
2023-02-23T05:13:49.711Z,100421.13
2023-02-23T05:18:02.112Z,100428.34
2023-02-23T05:22:14.432Z,100429.22
2023-02-23T05:26:26.841Z,100417.78
2023-02-23T05:30:39.270Z,100426.75
2023-02-23T05:34:51.688Z,100434.88
2023-02-23T05:39:04.655Z,100435.81
2023-02-23T05:43:18.283Z,100445.66
2023-02-23T05:47:32.695Z,100438.88
2023-02-23T05:51:45.166Z,100432.13
2023-02-23T05:55:57.737Z,100443.69
2023-02-23T06:00:13.744Z,100444.97
2023-02-23T06:04:26.136Z,100450.34
2023-02-23T06:08:38.850Z,100454.84
2023-02-23T06:12:51.241Z,100462.78
2023-02-23T06:17:03.588Z,100473.34
2023-02-23T06:21:16.095Z,100474.25
2023-02-23T06:25:28.569Z,100476.91
2023-02-23T06:29:40.995Z,100488.31
2023-02-23T06:33:53.422Z,100485.66
2023-02-23T06:38:06.550Z,100492.44
2023-02-23T06:42:18.847Z,100487.28
2023-02-23T06:46:33.598Z,100502.28
2023-02-23T06:50:47.614Z,100496.13
2023-02-23T06:55:00.257Z,100485.53
2023-02-23T06:59:12.568Z,100487.44
2023-02-23T07:03:25.601Z,100491.06
2023-02-23T07:07:38.918Z,100487.66
2023-02-23T07:11:52.032Z,100493.00
2023-02-23T07:16:06.409Z,100488.63
2023-02-23T07:20:20.023Z,100497.53
2023-02-23T07:24:32.709Z,100504.53
2023-02-23T07:28:45.223Z,100498.31
2023-02-23T07:32:57.693Z,100498.28
2023-02-23T07:37:10.031Z,100507.06
2023-02-23T07:41:22.630Z,100508.00
2023-02-23T07:45:36.095Z,100512.25
2023-02-23T07:49:48.944Z,100509.25
2023-02-23T07:54:05.250Z,100509.28
2023-02-23T07:58:17.569Z,100503.59
2023-02-23T08:02:30.157Z,100508.09
2023-02-23T08:06:42.561Z,100514.06
2023-02-23T08:11:02.570Z,100511.34
2023-02-23T08:15:14.818Z,100516.16
2023-02-23T08:19:29.121Z,100518.84
2023-02-23T08:23:41.666Z,100527.59
2023-02-23T08:27:54.823Z,100521.81
2023-02-23T08:32:07.451Z,100530.16
2023-02-23T08:36:21.138Z,100521.78
2023-02-23T08:40:33.877Z,100528.69
2023-02-23T08:44:46.915Z,100518.97
2023-02-23T08:49:03.411Z,100533.66
2023-02-23T08:53:19.479Z,100536.19
2023-02-23T08:57:35.962Z,100522.13
2023-02-23T09:01:49.251Z,100529.41
2023-02-23T09:06:10.242Z,100525.50
2023-02-23T09:10:28.027Z,100528.00
2023-02-23T09:14:41.066Z,100515.84
2023-02-23T09:18:56.278Z,100516.63
2023-02-23T09:23:08.801Z,100520.38
2023-02-23T09:27:23.251Z,100512.00
2023-02-23T09:31:35.745Z,100516.22
2023-02-23T09:35:48.403Z,100506.56
2023-02-23T09:40:00.740Z,100510.09
2023-02-23T09:44:22.185Z,100508.84
2023-02-23T09:48:35.308Z,100518.81
2023-02-23T09:52:53.950Z,100513.50
2023-02-23T09:57:15.081Z,100510.50
2023-02-23T10:02:00.561Z,100504.09
2023-02-23T10:06:17.812Z,100508.97
2023-02-23T10:10:45.089Z,100512.78
2023-02-23T10:15:16.179Z,100507.91
2023-02-23T10:19:59.130Z,100509.78
2023-02-23T10:24:38.203Z,100507.59
2023-02-23T10:28:53.569Z,100504.16
2023-02-23T10:33:16.744Z,100495.56
2023-02-23T10:37:29.580Z,100491.66
2023-02-23T10:41:43.115Z,100489.84
2023-02-23T10:45:56.434Z,100478.84
2023-02-23T10:50:11.116Z,100469.75
2023-02-23T10:54:47.540Z,100475.59
2023-02-23T10:59:02.626Z,100479.97
2023-02-23T11:03:25.501Z,100470.75
2023-02-23T11:07:37.935Z,100471.31
2023-02-23T11:12:22.311Z,100461.53
2023-02-23T11:16:39.795Z,100465.31
2023-02-23T11:20:52.970Z,100458.16
2023-02-23T11:25:17.002Z,100461.09
2023-02-23T11:29:42.301Z,100448.84
2023-02-23T11:33:56.559Z,100448.34
2023-02-23T11:38:25.093Z,100452.53
2023-02-23T11:42:55.018Z,100452.91
2023-02-23T11:47:19.374Z,100445.81
2023-02-23T11:51:40.350Z,100442.97
2023-02-23T11:55:56.118Z,100443.94
2023-02-23T12:00:28.044Z,100436.56
2023-02-23T12:04:41.657Z,100441.06
2023-02-23T12:08:59.674Z,100430.88
2023-02-23T12:13:15.280Z,100435.22
2023-02-23T12:17:32.091Z,100435.97
2023-02-23T12:22:04.709Z,100420.44
2023-02-23T12:26:21.728Z,100420.72
2023-02-23T12:30:43.127Z,100428.91
2023-02-23T12:35:06.559Z,100415.22
2023-02-23T12:39:37.536Z,100417.03
2023-02-23T12:44:22.180Z,100411.53
2023-02-23T12:48:52.589Z,100401.56
2023-02-23T12:53:26.183Z,100400.78
2023-02-23T12:57:58.963Z,100389.66
2023-02-23T13:02:40.503Z,100396.88
2023-02-23T13:07:29.814Z,100393.91
2023-02-23T13:11:56.963Z,100398.94
2023-02-23T13:16:21.946Z,100391.53
2023-02-23T13:20:39.151Z,100395.44
2023-02-23T13:24:53.555Z,100392.72
2023-02-23T13:29:34.470Z,100400.47
2023-02-23T13:33:47.176Z,100405.31
2023-02-23T13:38:18.754Z,100399.50
2023-02-23T13:42:34.506Z,100402.66
2023-02-23T13:46:59.916Z,100399.72
2023-02-23T13:51:33.361Z,100406.69
2023-02-23T13:55:51.895Z,100407.50
2023-02-23T14:00:04.999Z,100408.81
2023-02-23T14:04:36.796Z,100410.09
2023-02-23T14:09:01.179Z,100410.47
2023-02-23T14:13:13.521Z,100407.78
2023-02-23T14:17:28.895Z,100403.94
2023-02-23T14:21:52.533Z,100405.28
2023-02-23T14:26:37.323Z,100399.50
2023-02-23T14:31:11.317Z,100398.38
2023-02-23T14:35:45.031Z,100393.19
2023-02-23T14:40:04.841Z,100390.72
2023-02-23T14:44:35.947Z,100383.63
2023-02-23T14:49:10.617Z,100396.00
2023-02-23T14:53:25.594Z,100386.66
2023-02-23T14:57:40.303Z,100388.63
2023-02-23T15:01:55.183Z,100379.59
2023-02-23T15:06:07.697Z,100379.13
2023-02-23T15:10:29.669Z,100381.94
2023-02-23T15:14:42.641Z,100384.44
2023-02-23T15:18:55.679Z,100387.31
2023-02-23T15:23:08.144Z,100387.59
2023-02-23T15:27:32.587Z,100380.28
2023-02-23T15:31:52.537Z,100385.38
2023-02-23T15:36:15.370Z,100389.56
2023-02-23T15:40:30.208Z,100391.97
2023-02-23T15:44:45.123Z,100393.25
2023-02-23T15:49:03.571Z,100394.25
2023-02-23T15:53:35.106Z,100389.59
2023-02-23T15:57:54.785Z,100390.88
2023-02-23T16:02:18.212Z,100385.78
2023-02-23T16:06:36.760Z,100398.53
2023-02-23T16:10:52.202Z,100396.91
2023-02-23T16:15:29.641Z,100398.09
2023-02-23T16:19:44.501Z,100407.19
2023-02-23T16:24:02.125Z,100418.97
2023-02-23T16:28:18.855Z,100428.19
2023-02-23T16:32:42.064Z,100433.75
2023-02-23T16:37:18.199Z,100433.09
2023-02-23T16:41:34.321Z,100448.31
2023-02-23T16:45:46.984Z,100447.56
2023-02-23T16:50:02.495Z,100455.63
2023-02-23T16:54:17.287Z,100460.13
2023-02-23T16:58:31.680Z,100466.47
2023-02-23T17:02:47.227Z,100477.16
2023-02-23T17:07:01.101Z,100472.13
2023-02-23T17:11:16.192Z,100482.13
2023-02-23T17:15:31.902Z,100487.50
2023-02-23T17:19:45.742Z,100489.47
2023-02-23T17:24:03.188Z,100492.97
2023-02-23T17:28:16.221Z,100493.06
2023-02-23T17:32:30.247Z,100492.16
2023-02-23T17:36:44.256Z,100486.88
2023-02-23T17:40:56.653Z,100493.97
2023-02-23T17:45:10.016Z,100488.69
2023-02-23T17:49:22.516Z,100494.84
2023-02-23T17:53:35.394Z,100487.81
2023-02-23T17:57:48.294Z,100489.56
2023-02-23T18:02:00.708Z,100493.09
2023-02-23T18:06:14.360Z,100489.56
2023-02-23T18:10:27.000Z,100480.72
2023-02-23T18:14:39.391Z,100493.09
2023-02-23T18:18:52.049Z,100491.34
2023-02-23T18:23:04.495Z,100492.22
2023-02-23T18:27:17.103Z,100493.84
2023-02-23T18:31:29.731Z,100493.81
2023-02-23T18:35:45.267Z,100492.91
2023-02-23T18:39:59.562Z,100493.81
2023-02-23T18:44:17.221Z,100492.97
2023-02-23T18:48:29.607Z,100491.22
2023-02-23T18:52:42.433Z,100485.03
2023-02-23T18:56:56.205Z,100493.88
2023-02-23T19:01:18.364Z,100493.91
2023-02-23T19:05:30.931Z,100499.25
2023-02-23T19:09:47.381Z,100504.56
2023-02-23T19:14:04.309Z,100502.81
2023-02-23T19:18:17.776Z,100494.84
2023-02-23T19:22:30.205Z,100502.81
2023-02-23T19:26:42.630Z,100512.50
2023-02-23T19:31:07.404Z,100516.91
2023-02-23T19:35:20.119Z,100523.06
2023-02-23T19:39:33.922Z,100528.38
2023-02-23T19:43:47.398Z,100530.09
2023-02-23T19:47:59.802Z,100538.72
2023-02-23T19:52:12.206Z,100538.59
2023-02-23T19:56:28.155Z,100545.53
2023-02-23T20:00:40.716Z,100551.69
2023-02-23T20:04:53.239Z,100555.19
2023-02-23T20:09:06.186Z,100557.75
2023-02-23T20:13:19.853Z,100570.88
2023-02-23T20:17:35.084Z,100553.13
2023-02-23T20:21:49.916Z,100568.06
2023-02-23T20:26:18.480Z,100567.28
2023-02-23T20:30:31.026Z,100563.72
2023-02-23T20:34:45.814Z,100562.97
2023-02-23T20:38:59.257Z,100556.88
2023-02-23T20:43:11.797Z,100568.19
2023-02-23T20:47:25.406Z,100558.22
2023-02-23T20:51:44.243Z,100554.50
2023-02-23T20:55:56.698Z,100564.31
2023-02-23T21:00:11.317Z,100555.97
2023-02-23T21:04:23.929Z,100565.00
2023-02-23T21:08:40.105Z,100568.31
2023-02-23T21:12:53.470Z,100564.31
2023-02-23T21:17:06.759Z,100569.50
2023-02-23T21:21:19.425Z,100574.66
2023-02-23T21:25:32.668Z,100573.75
2023-02-23T21:29:46.066Z,100565.66
2023-02-23T21:33:58.527Z,100573.69
2023-02-23T21:38:10.927Z,100566.97
2023-02-23T21:42:24.174Z,100577.09
2023-02-23T21:46:37.188Z,100573.41
2023-02-23T21:50:50.099Z,100576.84
2023-02-23T21:55:07.771Z,100580.22
2023-02-23T21:59:25.603Z,100573.09
2023-02-23T22:03:39.306Z,100567.88
2023-02-23T22:07:55.091Z,100581.69
2023-02-23T22:12:07.948Z,100568.56
2023-02-23T22:16:22.413Z,100578.22
2023-02-23T22:20:34.617Z,100579.16
2023-02-23T22:24:49.102Z,100581.63
2023-02-23T22:29:01.450Z,100582.53
2023-02-23T22:33:13.811Z,100577.69
2023-02-23T22:37:30.048Z,100576.50
2023-02-23T22:41:42.969Z,100579.84
2023-02-23T22:45:56.664Z,100592.22
2023-02-23T22:50:12.245Z,100581.59
2023-02-23T22:54:24.572Z,100582.22
2023-02-23T22:58:37.578Z,100570.00
2023-02-23T23:02:50.059Z,100580.69
2023-02-23T23:07:03.414Z,100576.38
2023-02-23T23:11:19.056Z,100575.81
2023-02-23T23:15:32.206Z,100566.16
2023-02-23T23:19:46.555Z,100566.09
2023-02-23T23:24:02.549Z,100571.28
2023-02-23T23:28:14.905Z,100571.16
2023-02-23T23:32:30.489Z,100571.13
2023-02-23T23:36:53.476Z,100562.25
2023-02-23T23:41:15.375Z,100560.50
2023-02-23T23:45:27.829Z,100552.53
2023-02-23T23:49:40.279Z,100559.56
2023-02-23T23:53:52.763Z,100557.84
2023-02-23T23:58:06.464Z,100552.75
